createdAt,value
2023-10-02T00:01:48.575Z,101590.19
2023-10-02T00:06:43.265Z,101596.31
2023-10-02T00:11:40.913Z,101602.59
2023-10-02T00:16:34.256Z,101611.50
2023-10-02T00:21:28.329Z,101601.19
2023-10-02T00:26:24.075Z,101613.44
2023-10-02T00:31:34.246Z,101594.25
2023-10-02T00:36:27.651Z,101608.44
2023-10-02T00:41:23.121Z,101632.09
2023-10-02T00:46:25.014Z,101517.09
2023-10-02T00:51:18.588Z,101634.06
2023-10-02T00:56:22.903Z,101597.31
2023-10-02T01:01:20.820Z,101646.72
2023-10-02T01:06:14.198Z,101646.16
2023-10-02T01:11:08.395Z,101662.88
2023-10-02T01:16:05.006Z,101647.81
2023-10-02T01:21:01.798Z,101649.31
2023-10-02T01:25:59.399Z,101653.50
2023-10-02T01:30:52.842Z,101641.69
2023-10-02T01:35:50.775Z,101616.13
2023-10-02T01:40:44.941Z,101597.75
2023-10-02T01:45:43.548Z,101650.03
2023-10-02T01:50:37.822Z,101547.41
2023-10-02T01:55:31.506Z,101621.38
2023-10-02T02:00:25.662Z,101645.56
2023-10-02T02:05:20.352Z,101653.09
2023-10-02T02:10:13.580Z,101540.59
2023-10-02T02:15:07.826Z,101650.03
2023-10-02T02:20:11.867Z,101662.84
2023-10-02T02:25:07.269Z,101658.66
2023-10-02T02:30:01.951Z,101661.88
2023-10-02T02:35:02.632Z,101633.50
2023-10-02T02:40:16.036Z,101648.91
2023-10-02T02:45:26.032Z,101680.22
2023-10-02T02:50:26.421Z,101683.97
2023-10-02T02:55:24.155Z,101694.69
2023-10-02T03:00:33.230Z,101692.72
2023-10-02T03:05:39.357Z,101699.28
2023-10-02T03:10:38.340Z,101710.69
2023-10-02T03:15:48.014Z,101703.44
2023-10-02T03:20:44.624Z,101645.03
2023-10-02T03:25:43.409Z,101722.56
2023-10-02T03:30:40.279Z,101720.94
2023-10-02T03:35:40.683Z,101724.19
2023-10-02T03:40:33.948Z,101729.69
2023-10-02T03:45:40.236Z,101718.03
2023-10-02T03:50:38.642Z,101727.19
2023-10-02T03:55:34.961Z,101739.91
2023-10-02T04:00:29.435Z,101736.25
2023-10-02T04:05:34.317Z,101741.31
2023-10-02T04:10:49.705Z,101750.81
2023-10-02T04:15:45.305Z,101778.03
2023-10-02T04:20:38.752Z,101781.75
2023-10-02T04:25:36.680Z,101749.22
2023-10-02T04:30:29.968Z,101789.22
2023-10-02T04:35:40.758Z,101753.06
2023-10-02T04:40:45.893Z,101780.59
2023-10-02T04:45:39.511Z,101799.38
2023-10-02T04:50:41.254Z,101812.44
2023-10-02T04:55:43.685Z,101818.22
2023-10-02T05:00:39.416Z,101821.06
2023-10-02T05:05:35.885Z,101822.00
2023-10-02T05:10:29.386Z,101816.03
2023-10-02T05:15:24.299Z,101794.88
2023-10-02T05:20:18.484Z,101843.75
2023-10-02T05:25:11.904Z,101854.16
2023-10-02T05:30:13.799Z,101855.00
2023-10-02T05:35:19.672Z,101867.19
2023-10-02T05:40:31.688Z,101865.53
2023-10-02T05:45:39.237Z,101866.13
2023-10-02T05:50:34.419Z,101877.19
2023-10-02T05:55:27.721Z,101853.34
2023-10-02T06:00:21.833Z,101905.69
2023-10-02T06:05:15.206Z,101913.47
2023-10-02T06:10:19.723Z,101904.59
2023-10-02T06:15:37.829Z,101899.09
2023-10-02T06:20:31.064Z,101903.38
2023-10-02T06:25:25.742Z,101916.81
2023-10-02T06:30:19.359Z,101923.84
2023-10-02T06:35:13.737Z,101927.72
2023-10-02T06:40:15.338Z,101933.34
2023-10-02T06:45:16.933Z,101943.66
2023-10-02T06:50:28.914Z,101941.28
2023-10-02T06:55:26.227Z,101929.91
2023-10-02T07:00:21.712Z,101855.63
2023-10-02T07:05:15.131Z,101951.69
2023-10-02T07:10:10.036Z,101918.16
2023-10-02T07:15:14.571Z,101945.84
2023-10-02T07:20:12.988Z,101954.31
2023-10-02T07:25:06.698Z,101941.16
2023-10-02T07:30:01.159Z,101957.31
2023-10-02T07:34:55.971Z,101955.06
2023-10-02T07:39:57.691Z,101956.72
2023-10-02T07:44:52.191Z,101969.78
2023-10-02T07:49:48.002Z,101968.69
2023-10-02T07:54:47.186Z,101979.13
2023-10-02T07:59:45.163Z,101985.72
2023-10-02T08:04:48.961Z,101983.81
2023-10-02T08:09:48.701Z,101996.97
2023-10-02T08:14:44.105Z,101990.66
2023-10-02T08:19:38.567Z,102007.31
2023-10-02T08:24:31.973Z,102004.66
2023-10-02T08:29:28.005Z,102003.22
2023-10-02T08:34:25.921Z,102014.22
2023-10-02T08:39:24.234Z,102002.94
2023-10-02T08:44:17.916Z,102009.44
2023-10-02T08:49:13.155Z,102014.09
2023-10-02T08:54:08.456Z,102011.22
2023-10-02T08:59:19.258Z,102004.03
2023-10-02T09:04:24.426Z,101997.31
2023-10-02T09:09:29.114Z,102015.03
2023-10-02T09:14:24.525Z,102007.00
2023-10-02T09:19:32.033Z,102003.84
2023-10-02T09:24:26.719Z,101999.75
2023-10-02T09:29:20.578Z,102008.38
2023-10-02T09:34:38.396Z,102021.09
2023-10-02T09:39:37.888Z,102011.69
2023-10-02T09:44:31.504Z,102017.91
2023-10-02T09:49:31.953Z,102016.13
2023-10-02T09:54:33.494Z,102013.88
2023-10-02T09:59:38.989Z,101990.78
2023-10-02T10:05:28.198Z,101996.59
2023-10-02T10:10:30.116Z,102005.22
2023-10-02T10:15:32.996Z,101934.75
2023-10-02T10:20:29.653Z,101982.00
2023-10-02T10:25:43.996Z,101986.94
2023-10-02T10:30:45.880Z,101963.53
2023-10-02T10:35:42.589Z,101976.44
2023-10-02T10:40:52.000Z,101974.38
2023-10-02T10:45:49.494Z,101974.66
2023-10-02T10:50:49.891Z,101979.81
2023-10-02T10:55:43.564Z,101959.19
2023-10-02T11:00:41.931Z,101958.69
2023-10-02T11:05:37.984Z,101927.34
2023-10-02T11:10:33.160Z,101784.38
2023-10-02T11:15:44.952Z,101943.03
2023-10-02T11:20:39.747Z,101936.97
2023-10-02T11:25:35.603Z,101934.09
2023-10-02T11:30:35.122Z,101934.19
2023-10-02T11:35:30.873Z,101914.75
2023-10-02T11:40:29.730Z,101928.63
2023-10-02T11:45:23.333Z,101913.88
2023-10-02T11:50:17.409Z,101923.16
2023-10-02T11:55:11.616Z,101922.50
2023-10-02T12:00:10.196Z,101915.47
2023-10-02T12:05:08.966Z,101916.41
2023-10-02T12:10:02.606Z,101863.16
2023-10-02T12:14:57.258Z,101899.13
2023-10-02T12:19:53.118Z,101885.94
2023-10-02T12:24:47.718Z,101904.34
2023-10-02T12:29:43.041Z,101894.88
2023-10-02T12:34:36.326Z,101891.38
2023-10-02T12:39:32.050Z,101908.91
2023-10-02T12:44:25.525Z,101905.78
2023-10-02T12:49:21.353Z,101889.31
2023-10-02T12:54:14.999Z,101900.78
2023-10-02T12:59:12.991Z,101890.25
2023-10-02T13:04:07.825Z,101892.22
2023-10-02T13:09:10.102Z,101889.94
2023-10-02T13:14:03.476Z,101882.81
2023-10-02T13:18:58.251Z,101885.38
2023-10-02T13:23:52.397Z,101897.22
2023-10-02T13:28:53.440Z,101887.66
2023-10-02T13:33:55.124Z,101892.47
2023-10-02T13:38:52.654Z,101882.13
2023-10-02T13:43:46.328Z,101877.50
2023-10-02T13:48:40.222Z,101889.31
2023-10-02T13:53:34.449Z,101862.19
2023-10-02T13:58:29.718Z,101878.19
2023-10-02T14:03:23.420Z,101875.09
2023-10-02T14:08:16.923Z,101884.75
2023-10-02T14:13:10.328Z,101886.50
2023-10-02T14:18:05.597Z,101875.44
2023-10-02T14:22:58.907Z,101756.81
2023-10-02T14:27:53.347Z,101898.59
2023-10-02T14:32:48.994Z,101894.66
2023-10-02T14:37:44.749Z,101892.59
2023-10-02T14:42:38.294Z,101912.47
2023-10-02T14:47:32.814Z,101823.47
2023-10-02T14:52:26.226Z,101914.22
2023-10-02T14:57:21.322Z,101895.44
2023-10-02T15:02:15.803Z,101913.09
2023-10-02T15:07:09.072Z,101908.13
2023-10-02T15:12:02.688Z,101917.28
2023-10-02T15:16:57.460Z,101914.25
2023-10-02T15:21:52.887Z,101900.97
2023-10-02T15:26:46.748Z,101906.28
2023-10-02T15:31:40.154Z,101905.09
2023-10-02T15:36:34.866Z,101926.44
2023-10-02T15:41:29.835Z,101923.66
2023-10-02T15:46:23.118Z,101948.31
2023-10-02T15:51:18.717Z,101940.91
2023-10-02T15:56:17.914Z,101951.75
2023-10-02T16:01:18.170Z,101949.78
2023-10-02T16:06:11.401Z,101954.19
2023-10-02T16:11:04.918Z,101960.13
2023-10-02T16:15:59.980Z,101953.19
2023-10-02T16:20:53.274Z,101957.84
2023-10-02T16:25:46.589Z,101933.19
2023-10-02T16:30:40.050Z,101970.69
2023-10-02T16:35:34.923Z,101978.69
2023-10-02T16:40:28.913Z,101967.03
2023-10-02T16:45:22.746Z,101974.59
2023-10-02T16:50:17.538Z,101987.72
2023-10-02T16:55:17.799Z,101826.84
2023-10-02T17:00:14.609Z,101990.06
2023-10-02T17:05:08.663Z,102001.00
2023-10-02T17:10:01.954Z,102007.34
2023-10-02T17:14:56.623Z,101972.19
2023-10-02T17:19:50.388Z,102009.09
2023-10-02T17:24:43.927Z,101941.41
2023-10-02T17:29:37.331Z,102026.38
2023-10-02T17:34:33.967Z,102036.78
2023-10-02T17:39:27.478Z,102035.03
2023-10-02T17:44:21.708Z,102047.84
2023-10-02T17:49:17.254Z,102054.78
2023-10-02T17:54:12.807Z,102061.59
2023-10-02T17:59:06.175Z,102071.88
2023-10-02T18:03:59.636Z,101996.09
2023-10-02T18:08:52.927Z,102068.22
2023-10-02T18:13:48.203Z,102076.34
2023-10-02T18:18:41.755Z,102086.38
2023-10-02T18:23:36.925Z,102072.34
2023-10-02T18:28:30.219Z,102082.69
2023-10-02T18:33:24.865Z,102077.16
2023-10-02T18:38:19.066Z,102076.84
2023-10-02T18:43:12.572Z,102045.63
2023-10-02T18:48:08.017Z,102052.16
2023-10-02T18:53:02.630Z,102095.19
2023-10-02T18:57:55.881Z,102088.25
2023-10-02T19:02:49.225Z,102091.53
2023-10-02T19:07:43.221Z,102061.16
2023-10-02T19:12:38.563Z,102101.41
2023-10-02T19:17:31.961Z,102107.94
2023-10-02T19:22:27.804Z,102110.88
2023-10-02T19:27:21.074Z,102106.91
2023-10-02T19:32:15.889Z,102092.56
2023-10-02T19:37:09.104Z,102101.59
2023-10-02T19:42:04.746Z,102122.00
2023-10-02T19:47:00.529Z,102102.25
2023-10-02T19:51:55.231Z,102111.00
2023-10-02T19:56:48.602Z,102117.19
2023-10-02T20:01:42.172Z,102129.59
2023-10-02T20:06:37.484Z,102132.78
2023-10-02T20:11:32.525Z,102119.53
2023-10-02T20:16:25.773Z,102124.78
2023-10-02T20:21:19.762Z,102132.16
2023-10-02T20:26:13.378Z,102137.09
2023-10-02T20:31:12.434Z,102141.69
2023-10-02T20:36:07.785Z,102139.72
2023-10-02T20:41:01.556Z,102146.69
2023-10-02T20:45:55.080Z,102152.91
2023-10-02T20:50:50.165Z,102103.47
2023-10-02T20:55:43.574Z,102172.44
2023-10-02T21:00:40.487Z,102167.00
2023-10-02T21:05:34.311Z,102178.88
2023-10-02T21:10:29.408Z,102161.44
2023-10-02T21:15:22.757Z,102178.16
2023-10-02T21:20:16.815Z,102179.16
2023-10-02T21:25:11.263Z,102156.03
2023-10-02T21:30:07.261Z,102170.31
2023-10-02T21:35:02.531Z,102180.28
2023-10-02T21:39:55.877Z,102179.00
2023-10-02T21:44:49.578Z,102159.22
2023-10-02T21:49:44.351Z,102172.16
2023-10-02T21:54:38.822Z,102184.16
2023-10-02T21:59:32.179Z,102188.19
2023-10-02T22:04:25.471Z,102189.34
2023-10-02T22:09:20.403Z,102128.69
2023-10-02T22:14:17.229Z,102187.06
2023-10-02T22:19:11.198Z,102154.81
2023-10-02T22:24:06.160Z,102199.25
2023-10-02T22:29:01.024Z,102190.38
2023-10-02T22:33:55.317Z,102192.63
2023-10-02T22:38:48.735Z,102205.91
2023-10-02T22:43:42.632Z,102131.38
2023-10-02T22:48:37.481Z,102202.38
2023-10-02T22:53:33.105Z,102196.19
2023-10-02T22:58:27.309Z,102202.19
2023-10-02T23:03:20.811Z,102208.06
2023-10-02T23:08:16.227Z,102203.41
2023-10-02T23:13:09.504Z,102200.78
2023-10-02T23:18:03.580Z,102202.84
2023-10-02T23:22:56.959Z,102198.50
2023-10-02T23:27:52.444Z,102196.06
2023-10-02T23:32:46.102Z,102187.59
2023-10-02T23:37:40.370Z,102195.53
2023-10-02T23:42:33.578Z,102219.59
2023-10-02T23:47:29.307Z,102193.91
2023-10-02T23:52:24.982Z,102159.88
2023-10-02T23:57:20.924Z,102188.75
